createdAt,value
2019-04-25T00:03:32.644Z,13.9
2019-04-25T00:08:32.644Z,13.8
2019-04-25T00:13:32.612Z,13.9
2019-04-25T00:18:32.625Z,13.8
2019-04-25T00:23:32.621Z,13.8
2019-04-25T00:28:32.601Z,13.7
2019-04-25T00:33:34.364Z,13.5
2019-04-25T00:38:34.390Z,13.5
2019-04-25T00:43:34.380Z,13.5
2019-04-25T00:48:34.373Z,13.5
2019-04-25T00:53:34.362Z,13.6
2019-04-25T00:58:34.381Z,13.6
2019-04-25T01:03:34.421Z,13.5
2019-04-25T03:30:21.066Z,13.3
2019-04-25T03:35:21.047Z,13.2
2019-04-25T03:40:21.015Z,13.3
2019-04-25T03:50:28.947Z,13.7
2019-04-25T03:55:29.034Z,13.9
2019-04-25T04:00:28.927Z,14.1
2019-04-25T04:05:28.912Z,13.9
2019-04-25T04:10:28.931Z,13.9
2019-04-25T04:15:28.924Z,14
2019-04-25T04:20:28.939Z,14.3
2019-04-25T04:25:28.902Z,14.4
2019-04-25T04:30:28.925Z,14.6
2019-04-25T04:35:28.896Z,14.6
2019-04-25T04:40:28.919Z,14.8
2019-04-25T04:45:34.805Z,15.1
2019-04-25T04:50:33.897Z,15.2
2019-04-25T04:55:34.535Z,15.5
2019-04-25T05:00:34.099Z,15.6
2019-04-25T05:05:34.624Z,15.6
2019-04-25T05:10:37.157Z,16.3
2019-04-25T05:15:33.565Z,16.3
2019-04-25T05:20:35.817Z,16.2
2019-04-25T05:25:34.713Z,16.4
2019-04-25T05:30:33.870Z,16.8
2019-04-25T05:35:33.475Z,17
2019-04-25T05:40:33.775Z,17
2019-04-25T05:45:34.325Z,17.2
2019-04-25T05:50:34.105Z,17.4
2019-04-25T05:55:34.515Z,17.4
2019-04-25T06:00:34.457Z,17.5
2019-04-25T06:05:33.870Z,18
2019-04-25T06:10:34.045Z,18.1
2019-04-25T06:37:06.561Z,18.4
2019-04-25T06:42:06.546Z,19.2
2019-04-25T06:47:06.477Z,18.6
2019-04-25T06:52:06.521Z,18.5
2019-04-25T07:00:58.526Z,18.7
2019-04-25T07:05:41.155Z,18.9
2019-04-25T07:10:27.643Z,19.2
2019-04-25T07:15:28.061Z,19.1
2019-04-25T07:20:28.455Z,19.7
2019-04-25T07:25:28.709Z,19
2019-04-25T07:30:54.841Z,19.3
2019-04-25T07:35:26.901Z,19.2
2019-04-25T07:40:27.526Z,20
2019-04-25T07:45:27.267Z,19.8
2019-04-25T07:50:28.749Z,20
2019-04-25T07:55:27.750Z,19.9
2019-04-25T08:00:27.530Z,19.7
2019-04-25T08:05:28.039Z,19.8
2019-04-25T08:10:28.098Z,20
2019-04-25T08:15:26.363Z,20.4
2019-04-25T08:20:26.404Z,20.8
2019-04-25T08:25:26.346Z,20.9
2019-04-25T08:30:26.350Z,20.5
2019-04-25T08:35:26.362Z,21
2019-04-25T08:40:26.413Z,20.7
2019-04-25T08:45:26.343Z,21
2019-04-25T08:50:42.319Z,21.2
2019-04-25T08:55:26.313Z,21.5
2019-04-25T09:00:26.325Z,21.4
2019-04-25T09:05:26.519Z,21.3
2019-04-25T09:15:26.330Z,21.4
2019-04-25T09:20:26.338Z,21.9
2019-04-25T09:25:26.333Z,21.9
2019-04-25T09:30:26.294Z,22.2
2019-04-25T09:35:27.089Z,23.4
2019-04-25T09:40:27.065Z,23.2
2019-04-25T09:45:27.037Z,22.7
2019-04-25T09:50:27.073Z,23.6
2019-04-25T09:55:27.042Z,25.1
2019-04-25T10:00:27.027Z,24.7
2019-04-25T10:05:27.072Z,24.2
2019-04-25T10:10:27.020Z,25.1
2019-04-25T10:15:26.999Z,24.6
2019-04-25T10:20:27.053Z,23.9
2019-04-25T10:25:27.011Z,24.1
2019-04-25T10:30:27.068Z,23.6
2019-04-25T10:35:26.996Z,23.5
2019-04-25T10:40:26.998Z,24.1
2019-04-25T10:45:26.999Z,23.4
2019-04-25T10:50:27.018Z,22.9
2019-04-25T10:55:26.996Z,23
2019-04-25T11:00:26.997Z,23
2019-04-25T11:05:27.042Z,23
2019-04-25T11:10:27.026Z,22.5
2019-04-25T11:15:37.294Z,22.9
2019-04-25T11:20:26.998Z,23.3
2019-04-25T11:25:27.005Z,22.8
2019-04-25T11:30:27.000Z,23.5
2019-04-25T11:40:34.895Z,25
2019-04-25T11:45:34.886Z,24.4
2019-04-25T11:50:37.282Z,25.4
2019-04-25T11:55:36.755Z,24.8
2019-04-25T12:00:35.729Z,25
2019-04-25T12:05:35.733Z,24.8
2019-04-25T12:10:35.721Z,25.3
2019-04-25T12:15:35.736Z,24.3
2019-04-25T12:20:36.573Z,23.7
2019-04-25T12:25:36.511Z,24.4
2019-04-25T12:30:40.674Z,25.3
2019-04-25T12:35:36.617Z,25
2019-04-25T12:40:36.471Z,25.6
2019-04-25T12:45:36.471Z,27.6
2019-04-25T12:50:36.454Z,26.4
2019-04-25T12:55:36.532Z,26.9
2019-04-25T13:01:00.205Z,27.1
2019-04-25T13:05:36.506Z,26.6
2019-04-25T13:10:36.476Z,27.6
2019-04-25T13:15:36.520Z,25.5
2019-04-25T13:20:36.459Z,27.5
2019-04-25T13:25:36.454Z,26.7
2019-04-25T13:30:36.544Z,26.1
2019-04-25T13:35:43.551Z,28
2019-04-25T13:40:36.467Z,27.2
2019-04-25T13:45:36.422Z,27.3
2019-04-25T13:50:36.447Z,26.9
2019-04-25T13:55:36.942Z,25.3
2019-04-25T14:00:36.602Z,25.3
2019-04-25T14:05:36.432Z,24.3
2019-04-25T14:10:36.507Z,23.3
2019-04-25T14:15:37.462Z,23.5
2019-04-25T14:20:37.701Z,23
2019-04-25T14:25:36.408Z,23
2019-04-25T14:30:36.433Z,23.1
2019-04-25T14:35:36.386Z,23.1
2019-04-25T14:40:36.463Z,23.4
2019-04-25T14:45:45.379Z,23
2019-04-25T14:50:36.402Z,22.6
2019-04-25T14:55:36.393Z,22.6
2019-04-25T15:00:36.519Z,23
2019-04-25T15:05:37.527Z,22.4
2019-04-25T15:10:36.390Z,22.6
2019-04-25T15:15:36.366Z,22.7
2019-04-25T15:20:36.405Z,22.7
2019-04-25T15:25:37.221Z,22.6
2019-04-25T15:30:36.354Z,22.4
2019-04-25T15:35:51.374Z,22.4
2019-04-25T15:40:36.686Z,22.2
2019-04-25T15:45:36.668Z,22.4
2019-04-25T15:50:36.343Z,22.2
2019-04-25T15:55:36.338Z,22.2
2019-04-25T16:00:36.344Z,22.6
2019-04-25T16:05:36.367Z,23
2019-04-25T16:10:36.766Z,23.6
2019-04-25T16:15:36.333Z,23.9
2019-04-25T16:20:36.349Z,22.9
2019-04-25T16:25:36.343Z,23.1
2019-04-25T16:30:36.668Z,22.5
2019-04-25T16:35:36.315Z,22.2
2019-04-25T16:40:36.467Z,21.9
2019-04-25T16:45:36.299Z,21.4
2019-04-25T16:50:36.676Z,21.4
2019-04-25T16:55:36.858Z,21.3
2019-04-25T17:00:36.420Z,20.9
2019-04-25T17:05:37.245Z,20.6
2019-04-25T17:10:37.131Z,20.5
2019-04-25T17:15:36.402Z,20.4
2019-04-25T17:20:38.061Z,20.2
2019-04-25T17:25:37.138Z,20.2
2019-04-25T17:30:36.278Z,20
2019-04-25T17:35:36.896Z,19.9
2019-04-25T17:40:36.319Z,19.8
2019-04-25T17:45:37.170Z,19.7
2019-04-25T17:50:36.276Z,19.5
2019-04-25T17:55:36.232Z,19.5
2019-04-25T18:00:36.301Z,19.5
2019-04-25T18:05:36.608Z,19.2
2019-04-25T18:10:36.268Z,19.1
2019-04-25T18:15:37.780Z,19
2019-04-25T18:20:36.875Z,18.9
2019-04-25T18:25:37.129Z,18.8
2019-04-25T18:30:37.174Z,18.7
2019-04-25T18:35:44.123Z,18.6
2019-04-25T18:40:37.961Z,18.5
2019-04-25T18:45:38.544Z,18.5
2019-04-25T18:50:38.692Z,18.4
2019-04-25T18:55:38.913Z,18.3
2019-04-25T19:00:38.284Z,18.3
2019-04-25T19:05:36.906Z,18.2
2019-04-25T19:10:36.905Z,18.2
2019-04-25T19:15:36.896Z,18.2
2019-04-25T19:20:36.885Z,18.1
2019-04-25T19:25:37.091Z,18
2019-04-25T19:30:36.911Z,17.9
2019-04-25T19:35:36.888Z,17.9
2019-04-25T19:40:36.913Z,17.9
2019-04-25T19:45:41.315Z,17.8
2019-04-25T19:50:36.853Z,17.7
2019-04-25T19:55:36.858Z,17.6
2019-04-25T20:00:37.266Z,17.5
2019-04-25T20:05:36.849Z,17.4
2019-04-25T20:10:36.882Z,17.4
2019-04-25T20:15:36.901Z,17.4
2019-04-25T20:20:36.856Z,17.3
2019-04-25T20:25:36.844Z,17.3
2019-04-25T20:30:36.837Z,17.3
2019-04-25T20:35:37.027Z,17.2
2019-04-25T20:37:12.344Z,17.2
2019-04-25T20:42:12.216Z,17.2
2019-04-25T20:45:39.656Z,17
2019-04-25T20:50:39.632Z,16.9
2019-04-25T20:55:39.684Z,16.9
2019-04-25T21:00:40.592Z,16.9
2019-04-25T21:05:40.596Z,16.7
2019-04-25T21:10:39.485Z,16.5
2019-04-25T21:15:39.470Z,16.4
2019-04-25T21:20:39.677Z,16.3
2019-04-25T21:25:39.485Z,16.3
2019-04-25T21:30:39.589Z,16.1
2019-04-25T21:35:39.556Z,16.1
2019-04-25T21:40:42.068Z,16.1
2019-04-25T21:45:40.463Z,16
2019-04-25T21:50:40.913Z,16
2019-04-25T21:55:40.972Z,15.8
2019-04-25T22:05:45.804Z,15.7
2019-04-25T22:10:45.726Z,15.7
2019-04-25T22:15:47.032Z,15.6
2019-04-25T22:20:46.909Z,15.7
2019-04-25T22:25:48.011Z,15.7
2019-04-25T22:30:45.759Z,15.7
2019-04-25T22:35:47.005Z,15.6
2019-04-25T22:40:46.939Z,15.6
2019-04-25T22:45:45.754Z,15.5
2019-04-25T22:50:45.783Z,15.5
2019-04-25T22:55:45.703Z,15.5
2019-04-25T23:00:45.777Z,15.5
2019-04-25T23:05:51.476Z,15.5
2019-04-25T23:10:46.535Z,15.3
2019-04-25T23:15:46.891Z,15.3
2019-04-25T23:20:46.565Z,15.2
2019-04-25T23:25:45.670Z,15.3
2019-04-25T23:30:47.686Z,15.2
2019-04-25T23:35:45.633Z,15
2019-04-25T23:40:46.922Z,15
2019-04-25T23:45:46.761Z,15
2019-04-25T23:50:45.649Z,14.8
2019-04-25T23:55:45.650Z,14.7
